• Join FlightAware (Why Join?)
  • Login
  • US Flag 
01:08AM EDT


 

Airport Tracker/Info


-or-


 

Live Flight TrackerFlight Track Log ✈ AAL963 ✈ 07-Jun-2013 ✈ KDFW - SBGR / GRU

Flight Track Log - Related Links

Times and Time Zones

All times are in EDT time to prevent confusion due to time zone crossing. See the AAL963 flight status page for this flight to view local times or setup timezone preferences in your user account.

Time Position Orientation Groundspeed Altitude Reporting Facility
EDT Latitude Longitude Course Direction KTS MPH feet Rate Location/Type
09:11PM 32.9700 -97.0200 North 226 260 2,400  Level FlightAware
09:11PM 32.9870 -97.0140 16° North 238 274 2,800 1,500 Climbing FlightAware
09:11PM 32.9990 -97.0050 32° Northeast 245 282 3,100 1,680 Climbing FlightAware
09:12PM 33.0080 -96.9940 46° Northeast 249 287 3,500 2,100 Climbing FlightAware
09:12PM 33.0250 -96.9570 61° Northeast 255 293 4,600 2,100 Climbing FlightAware
09:12PM 33.0260 -96.9440 85° East 261 300 4,900 2,220 Climbing FlightAware
09:13PM 33.0170 -96.9010 104° East 262 302 6,100 1,980 Climbing FlightAware
09:13PM 33.0030 -96.8580 111° Southeast 280 322 6,900 1,560 Climbing FlightAware
09:14PM 32.9930 -96.8360 118° Southeast 294 338 7,300 1,800 Climbing FlightAware
09:14PM 32.9640 -96.8090 142° Southeast 306 352 8,200 1,920 Climbing FlightAware
09:14PM 32.9460 -96.8020 162° South 312 359 8,600 1,860 Climbing FlightAware
09:15PM 32.9050 -96.7970 174° South 317 365 9,500 1,860 Climbing FlightAware
09:15PM 32.8450 -96.7910 175° South 329 379 10,800 1,320 Climbing FlightAware
09:16PM 32.7780 -96.7910 180° South 360 414 11,400 720 Climbing FlightAware
09:17PM 32.6990 -96.7940 182° South 399 459 11,900 1,320 Climbing FlightAware
09:18PM 32.6230 -96.7980 183° South 404 465 13,300 1,800 Climbing FlightAware
09:18PM 32.5530 -96.8020 183° South 410 472 14,400 1,800 Climbing FlightAware
09:19PM 32.4670 -96.8060 182° South 417 480 15,800 2,040 Climbing FlightAware
09:20PM 32.3830 -96.8100 182° South 420 483 17,300 1,800 Climbing FlightAware
09:21PM 32.2661 -96.8070 179° South 433 498 18,900 1,620 Climbing FlightAware ADS-B
09:21PM 32.2111 -96.7887 164° South 438 504 19,700 1,620 Climbing FlightAware ADS-B
09:22PM 32.1404 -96.7612 162° South 444 511 20,700 1,500 Climbing FlightAware ADS-B
09:22PM 32.0754 -96.7357 162° South 450 518 21,500 1,380 Climbing FlightAware ADS-B
09:23PM 32.0139 -96.7122 162° South 455 524 22,200 1,320 Climbing FlightAware ADS-B
09:23PM 31.9530 -96.6891 162° South 459 528 22,900 1,200 Climbing FlightAware ADS-B
09:24PM 31.8878 -96.6644 162° South 466 536 23,500 1,260 Climbing FlightAware ADS-B
09:25PM 31.7827 -96.6220 161° South 471 542 24,700 1,440 Climbing FlightAware ADS-B
09:25PM 31.7207 -96.5962 161° South 473 544 25,500 1,320 Climbing FlightAware ADS-B
09:26PM 31.6547 -96.5691 161° South 476 548 26,100 1,080 Climbing FlightAware ADS-B
09:26PM 31.5863 -96.5413 161° South 481 554 26,700 1,020 Climbing FlightAware ADS-B
09:27PM 31.5214 -96.5149 161° South 483 556 27,200 1,260 Climbing FlightAware ADS-B
09:27PM 31.4572 -96.4902 162° South 479 551 28,000 1,260 Climbing FlightAware ADS-B
09:28PM 31.3922 -96.4664 163° South 483 556 28,500 780 Climbing FlightAware ADS-B
09:28PM 31.3273 -96.4425 163° South 489 563 28,800 660 Climbing FlightAware ADS-B
09:29PM 31.2594 -96.4173 162° South 494 568 29,200 660 Climbing FlightAware ADS-B
09:29PM 31.2169 -96.4010 162° South 498 573 29,400 600 Climbing FlightAware ADS-B
09:29PM 31.1983 -96.3914 156° South 502 578 29,500 900 Climbing FlightAware ADS-B
09:29PM 31.1758 -96.3758 149° Southeast 506 582 29,700 1,080 Climbing FlightAware ADS-B
09:29PM 31.1671 -96.3684 144° Southeast 508 585 29,800 540 Climbing FlightAware ADS-B
09:30PM 31.1382 -96.3370 135° Southeast 516 594 29,900 720 Climbing FlightAware ADS-B
09:30PM 31.0841 -96.2513 126° Southeast 520 598 30,500 1,020 Climbing FlightAware ADS-B
09:31PM 31.0419 -96.1822 125° Southeast 517 595 31,100 1,140 Climbing FlightAware ADS-B
09:31PM 31.0000 -96.1136 125° Southeast 516 594 31,700 600 Climbing FlightAware ADS-B
09:34PM 30.7865 -95.7685 126° Southeast 516 594 33,000 420 Climbing FlightAware ADS-B
09:34PM 30.7438 -95.7001 126° Southeast 515 593 33,000  Level FlightAware ADS-B
09:35PM 30.7014 -95.6320 126° Southeast 515 593 33,000  Level FlightAware ADS-B
09:37PM 30.5264 -95.3525 126° Southeast 517 595 33,000  Level FlightAware ADS-B
09:39PM 30.3939 -95.1421 126° Southeast 520 598 33,000  Level FlightAware ADS-B
09:39PM 30.3421 -95.0602 126° Southeast 522 601 33,000  Level FlightAware ADS-B
09:40PM 30.2559 -94.9243 126° Southeast 523 602 33,000  Level FlightAware ADS-B
09:41PM 30.2124 -94.8558 126° Southeast 524 603 33,000  Level FlightAware ADS-B
09:41PM 30.1691 -94.7878 126° Southeast 524 603 33,000  Level FlightAware ADS-B
09:43PM 30.0379 -94.5824 126° Southeast 524 603 33,000  Level FlightAware ADS-B
09:45PM 29.8179 -94.2405 127° Southeast 520 598 33,000  Level FlightAware ADS-B
09:46PM 29.7747 -94.1737 127° Southeast 520 598 33,000  Level FlightAware ADS-B
09:46PM 29.7284 -94.1022 127° Southeast 519 597 33,000  Level FlightAware ADS-B
09:47PM 29.7009 -94.0630 129° Southeast 517 595 33,000  Level FlightAware ADS-B
09:48PM 29.6066 -93.9682 141° Southeast 513 590 33,000  Level FlightAware ADS-B
09:48PM 29.5492 -93.9191 143° Southeast 512 589 33,000  Level FlightAware ADS-B
09:49PM 29.4849 -93.8648 144° Southeast 512 589 33,000  Level FlightAware ADS-B
09:49PM 29.4145 -93.8051 144° Southeast 512 589 33,000  Level FlightAware ADS-B
09:50PM 29.3542 -93.7540 144° Southeast 511 588 33,000  Level FlightAware ADS-B
09:50PM 29.2965 -93.7051 144° Southeast 511 588 33,000  Level FlightAware ADS-B
09:51PM 29.2374 -93.6550 144° Southeast 511 588 33,000  Level FlightAware ADS-B
09:51PM 29.1793 -93.6056 143° Southeast 511 588 33,000  Level FlightAware ADS-B
09:52PM 29.1206 -93.5559 144° Southeast 512 589 33,000  Level FlightAware ADS-B
09:52PM 29.0616 -93.5061 144° Southeast 510 587 33,000  Level FlightAware ADS-B
09:53PM 29.0043 -93.4577 144° Southeast 510 587 33,000  Level FlightAware ADS-B
09:53PM 28.9467 -93.4091 144° Southeast 509 586 33,000 -120 Level FlightAware ADS-B
09:54PM 28.8461 -93.3236 144° Southeast 509 586 32,900 -60 Descending Houston Center
09:55PM 28.7336 -93.2286 143° Southeast 505 581 32,900  Level Houston Center
09:56PM 28.6197 -93.1350 144° Southeast 505 581 32,900  Level Houston Center
09:57PM 28.5067 -93.0392 143° Southeast 505 581 33,000  Climbing Houston Center
09:58PM 28.3717 -92.9264 144° Southeast 504 580 32,900 -60 Descending Houston Center
09:59PM 28.2597 -92.8322 143° Southeast 503 579 32,900  Level Houston Center
10:00PM 28.1450 -92.7403 145° Southeast 504 580 32,900  Level Houston Center
10:01PM 28.0325 -92.6458 143° Southeast 504 580 33,000  Climbing Houston Center
10:03PM 27.9175 -92.5514 144° Southeast 509 586 33,000 -60 Level Houston Center
10:04PM 27.8053 -92.4558 143° Southeast 507 583 32,900 -60 Descending Houston Center
10:05PM 27.6881 -92.3664 146° Southeast 506 582 32,900  Level Houston Center
10:06PM 27.5739 -92.2722 144° Southeast 508 585 33,000  Climbing Houston Center
10:07PM 27.4606 -92.1803 144° Southeast 504 580 33,000  Level Houston Center
10:08PM 27.3453 -92.0883 145° Southeast 506 582 33,000  Level Houston Center
10:10PM 27.1460 -91.9167 144° Southeast  Level FlightAware Approximate
10:17PM 26.3923 -91.3167 144° Southeast  Level FlightAware Approximate
10:18PM 26.2845 -91.2316 145° Southeast  Level FlightAware Approximate
10:19PM 26.1766 -91.1466 145° Southeast  Level FlightAware Approximate
10:20PM 26.0687 -91.0618 145° Southeast  Level FlightAware Approximate
10:21PM 25.9607 -90.9771 145° Southeast  Level FlightAware Approximate
10:22PM 25.8527 -90.8926 145° Southeast  Level FlightAware Approximate
10:23PM 25.7446 -90.8082 145° Southeast  Level FlightAware Approximate
10:24PM 25.6365 -90.7240 145° Southeast  Level FlightAware Approximate
10:25PM 25.5283 -90.6399 145° Southeast  Level FlightAware Approximate
10:26PM 25.4201 -90.5560 145° Southeast  Level FlightAware Approximate
10:27PM 25.3119 -90.4723 145° Southeast  Level FlightAware Approximate
10:28PM 25.2036 -90.3887 145° Southeast  Level FlightAware Approximate
10:29PM 25.0952 -90.3052 145° Southeast  Level FlightAware Approximate
10:30PM 24.9868 -90.2219 145° Southeast  Level FlightAware Approximate
10:31PM 24.8783 -90.1387 145° Southeast  Level FlightAware Approximate
10:32PM 24.7698 -90.0557 145° Southeast  Level FlightAware Approximate
10:33PM 24.6613 -89.9728 145° Southeast  Level FlightAware Approximate
10:34PM 24.5527 -89.8901 145° Southeast  Level FlightAware Approximate
10:35PM 24.4455 -89.8056 146° Southeast  Level FlightAware Approximate
10:36PM 24.3358 -89.7252 146° Southeast  Level FlightAware Approximate
10:37PM 24.2260 -89.6450 146° Southeast  Level FlightAware Approximate
10:38PM 24.1162 -89.5649 146° Southeast  Level FlightAware Approximate
10:39PM 24.0073 -89.4834 145° Southeast  Level FlightAware Approximate
10:40PM 23.8998 -89.3997 145° Southeast  Level FlightAware Approximate
10:41PM 23.7923 -89.3162 145° Southeast  Level FlightAware Approximate
10:42PM 23.6839 -89.2340 146° Southeast  Level FlightAware Approximate
10:43PM 23.5750 -89.1528 146° Southeast  Level FlightAware Approximate
10:44PM 23.4660 -89.0718 146° Southeast  Level FlightAware Approximate
10:45PM 23.3570 -88.9909 146° Southeast  Level FlightAware Approximate
10:46PM 23.2479 -88.9101 146° Southeast  Level FlightAware Approximate
10:47PM 23.1391 -88.8290 145° Southeast  Level FlightAware Approximate
10:48PM 23.0310 -88.7468 145° Southeast  Level FlightAware Approximate
10:49PM 22.9229 -88.6647 145° Southeast  Level FlightAware Approximate
10:50PM 22.8148 -88.5827 145° Southeast  Level FlightAware Approximate
10:51PM 22.7066 -88.5009 145° Southeast  Level FlightAware Approximate
10:52PM 22.6071 -88.4074 137° Southeast  Level FlightAware Approximate
10:53PM 22.5100 -88.3107 137° Southeast  Level FlightAware Approximate
10:54PM 22.4128 -88.2142 137° Southeast  Level FlightAware Approximate
10:55PM 22.3155 -88.1179 137° Southeast  Level FlightAware Approximate
10:56PM 22.2182 -88.0216 138° Southeast  Level FlightAware Approximate
10:57PM 22.1209 -87.9255 138° Southeast  Level FlightAware Approximate
10:58PM 22.0235 -87.8296 138° Southeast  Level FlightAware Approximate
10:59PM 21.9260 -87.7337 138° Southeast  Level FlightAware Approximate
11:00PM 21.8284 -87.6380 138° Southeast  Level FlightAware Approximate
11:01PM 21.7309 -87.5425 138° Southeast  Level FlightAware Approximate
11:02PM 21.6332 -87.4470 138° Southeast  Level FlightAware Approximate
11:03PM 21.5355 -87.3517 138° Southeast  Level FlightAware Approximate
11:04PM 21.4377 -87.2567 138° Southeast  Level FlightAware Approximate
11:05PM 21.3397 -87.1618 138° Southeast  Level FlightAware Approximate
11:06PM 21.2417 -87.0670 138° Southeast  Level FlightAware Approximate
11:07PM 21.1437 -86.9724 138° Southeast  Level FlightAware Approximate
11:08PM 21.0456 -86.8778 138° Southeast  Level FlightAware Approximate
11:09PM 20.9479 -86.7829 138° Southeast  Level FlightAware Approximate
11:10PM 20.8503 -86.6879 138° Southeast  Level FlightAware Approximate
11:11PM 20.7526 -86.5930 138° Southeast  Level FlightAware Approximate
11:12PM 20.6550 -86.4983 138° Southeast  Level FlightAware Approximate
11:13PM 20.5572 -86.4037 138° Southeast  Level FlightAware Approximate
11:14PM 20.4594 -86.3092 138° Southeast  Level FlightAware Approximate
11:15PM 20.3616 -86.2148 138° Southeast  Level FlightAware Approximate
11:16PM 20.2637 -86.1205 138° Southeast  Level FlightAware Approximate
11:17PM 20.1658 -86.0263 138° Southeast  Level FlightAware Approximate
11:18PM 20.0678 -85.9323 138° Southeast  Level FlightAware Approximate
11:19PM 19.9694 -85.8387 138° Southeast  Level FlightAware Approximate
11:20PM 19.8708 -85.7456 138° Southeast  Level FlightAware Approximate
11:21PM 19.7721 -85.6526 138° Southeast  Level FlightAware Approximate
11:22PM 19.6733 -85.5597 138° Southeast  Level FlightAware Approximate
11:23PM 19.5745 -85.4669 138° Southeast  Level FlightAware Approximate
11:24PM 19.4756 -85.3742 139° Southeast  Level FlightAware Approximate
11:25PM 19.3767 -85.2817 139° Southeast  Level FlightAware Approximate
11:26PM 19.2778 -85.1892 139° Southeast  Level FlightAware Approximate
11:27PM 19.1788 -85.0969 139° Southeast  Level FlightAware Approximate
11:28PM 19.0797 -85.0047 139° Southeast  Level FlightAware Approximate
11:29PM 18.9806 -84.9126 139° Southeast  Level FlightAware Approximate
11:30PM 18.8815 -84.8206 139° Southeast  Level FlightAware Approximate
11:31PM 18.7823 -84.7287 139° Southeast  Level FlightAware Approximate
11:32PM 18.6831 -84.6370 139° Southeast  Level FlightAware Approximate
11:33PM 18.5839 -84.5453 139° Southeast  Level FlightAware Approximate
11:34PM 18.4932 -84.4458 123° Southeast  Level FlightAware Approximate
11:35PM 18.4202 -84.3299 125° Southeast  Level FlightAware Approximate
11:36PM 18.3452 -84.2156 125° Southeast  Level FlightAware Approximate
11:37PM 18.2701 -84.1014 125° Southeast  Level FlightAware Approximate
11:38PM 18.1949 -83.9873 125° Southeast  Level FlightAware Approximate
11:39PM 18.1197 -83.8732 125° Southeast  Level FlightAware Approximate
11:40PM 18.0444 -83.7593 125° Southeast  Level FlightAware Approximate
11:41PM 17.9691 -83.6454 125° Southeast  Level FlightAware Approximate
11:42PM 17.8797 -83.5441 135° Southeast  Level FlightAware Approximate
11:43PM 17.7856 -83.4470 136° Southeast  Level FlightAware Approximate
11:44PM 17.6914 -83.3500 136° Southeast  Level FlightAware Approximate
11:45PM 17.5972 -83.2531 136° Southeast  Level FlightAware Approximate
11:46PM 17.5030 -83.1563 136° Southeast  Level FlightAware Approximate
11:47PM 17.4086 -83.0597 136° Southeast  Level FlightAware Approximate
11:48PM 17.3115 -82.9662 139° Southeast  Level FlightAware Approximate
11:49PM 17.2121 -82.8754 139° Southeast  Level FlightAware Approximate
11:50PM 17.1127 -82.7847 139° Southeast  Level FlightAware Approximate
11:51PM 17.0132 -82.6941 139° Southeast  Level FlightAware Approximate
11:52PM 16.9137 -82.6035 139° Southeast  Level FlightAware Approximate
11:53PM 16.8142 -82.5131 139° Southeast  Level FlightAware Approximate
11:54PM 16.7146 -82.4227 139° Southeast  Level FlightAware Approximate
11:55PM 16.6150 -82.3325 139° Southeast  Level FlightAware Approximate
11:56PM 16.5153 -82.2423 139° Southeast  Level FlightAware Approximate
11:57PM 16.4186 -82.1490 134° Southeast  Level FlightAware Approximate
11:58PM 16.3275 -82.0496 134° Southeast  Level FlightAware Approximate
11:59PM 16.2363 -81.9503 134° Southeast  Level FlightAware Approximate
12:00AM 16.1451 -81.8511 134° Southeast  Level FlightAware Approximate
12:01AM 16.0539 -81.7519 134° Southeast  Level FlightAware Approximate
12:02AM 15.9626 -81.6529 134° Southeast  Level FlightAware Approximate
12:03AM 15.8713 -81.5539 134° Southeast  Level FlightAware Approximate
12:04AM 15.7799 -81.4550 134° Southeast  Level FlightAware Approximate
12:05AM 15.6884 -81.3562 134° Southeast  Level FlightAware Approximate
12:06AM 15.5970 -81.2575 134° Southeast  Level FlightAware Approximate
12:07AM 15.5055 -81.1589 134° Southeast  Level FlightAware Approximate
12:08AM 15.4139 -81.0604 134° Southeast  Level FlightAware Approximate
12:09AM 15.3223 -80.9620 134° Southeast  Level FlightAware Approximate
12:10AM 15.2307 -80.8636 134° Southeast  Level FlightAware Approximate
12:11AM 15.1390 -80.7654 134° Southeast  Level FlightAware Approximate
12:12AM 15.0472 -80.6672 134° Southeast  Level FlightAware Approximate
12:13AM 14.9496 -80.5759 142° Southeast  Level FlightAware Approximate
12:14AM 14.8456 -80.4919 142° Southeast  Level FlightAware Approximate
12:15AM 14.7417 -80.4079 142° Southeast  Level FlightAware Approximate
12:16AM 14.6376 -80.3241 142° Southeast  Level FlightAware Approximate
12:17AM 14.5336 -80.2403 142° Southeast  Level FlightAware Approximate
12:18AM 14.4295 -80.1566 142° Southeast  Level FlightAware Approximate
12:19AM 14.3254 -80.0730 142° Southeast  Level FlightAware Approximate
12:20AM 14.2213 -79.9894 142° Southeast  Level FlightAware Approximate
12:21AM 14.1172 -79.9059 142° Southeast  Level FlightAware Approximate
12:22AM 14.0130 -79.8225 142° Southeast  Level FlightAware Approximate
12:23AM 13.9087 -79.7392 142° Southeast  Level FlightAware Approximate
12:24AM 13.8045 -79.6560 142° Southeast  Level FlightAware Approximate
12:25AM 13.7002 -79.5728 142° Southeast  Level FlightAware Approximate
12:26AM 13.5959 -79.4897 142° Southeast  Level FlightAware Approximate
12:27AM 13.4916 -79.4067 142° Southeast  Level FlightAware Approximate
12:28AM 13.3872 -79.3238 142° Southeast  Level FlightAware Approximate
12:29AM 13.2828 -79.2409 142° Southeast  Level FlightAware Approximate
12:30AM 13.1784 -79.1581 142° Southeast  Level FlightAware Approximate
12:31AM 13.0740 -79.0753 142° Southeast  Level FlightAware Approximate
12:32AM 12.9695 -78.9927 142° Southeast  Level FlightAware Approximate
12:33AM 12.8650 -78.9101 142° Southeast  Level FlightAware Approximate
12:34AM 12.7605 -78.8276 142° Southeast  Level FlightAware Approximate
12:35AM 12.6560 -78.7450 142° Southeast  Level FlightAware Approximate
12:36AM 12.5516 -78.6624 142° Southeast  Level FlightAware Approximate
12:37AM 12.4477 -78.5803 142° Southeast  Level FlightAware Approximate
12:38AM 12.3438 -78.4983 142° Southeast  Level FlightAware Approximate
12:39AM 12.2399 -78.4163 142° Southeast  Level FlightAware Approximate
12:40AM 12.1359 -78.3344 142° Southeast  Level FlightAware Approximate
12:40AM 11.4100 -77.7660 142° Southeast 487 560 35,000  Level FlightAware
12:41AM 12.0319 -78.2525 142° Southeast  Level FlightAware Approximate
12:41AM 11.3630 -77.7280 142° Southeast 487 560 35,000  Level FlightAware
12:42AM 11.2890 -77.6690 142° Southeast 487 560 35,000  Level FlightAware
12:42AM 11.2330 -77.6250 142° Southeast 487 560 35,000  Level FlightAware
12:43AM 11.1620 -77.5680 142° Southeast 487 560 35,000  Level FlightAware
12:44AM 11.1090 -77.5260 142° Southeast 487 560 35,000  Level FlightAware
12:44AM 10.9670 -77.4220 144° Southeast 484 557 35,000  Level FlightAware
12:45AM 10.8930 -77.3560 139° Southeast 483 556 35,000  Level FlightAware
12:46AM 10.8250 -77.2920 137° Southeast 483 556 35,000  Level FlightAware
12:46AM 10.7580 -77.2290 137° Southeast 485 558 35,000  Level FlightAware
12:47AM 10.6690 -77.1460 137° Southeast 486 559 35,000  Level FlightAware
12:48AM 10.6150 -77.0940 137° Southeast 486 559 35,000  Level FlightAware
12:49AM 10.5210 -77.0080 138° Southeast 486 559 35,000  Level FlightAware
12:50AM 10.4440 -76.9370 138° Southeast 485 558 35,000  Level FlightAware
12:50AM 10.3760 -76.8740 138° Southeast 482 555 35,000  Level FlightAware
12:51AM 10.3100 -76.8120 137° Southeast 482 555 35,000  Level FlightAware
12:52AM 10.2460 -76.7530 138° Southeast 483 556 35,000  Level FlightAware
12:52AM 10.1690 -76.6820 138° Southeast 482 555 35,000  Level FlightAware
12:53AM 10.0770 -76.5970 138° Southeast 480 552 35,000  Level FlightAware
12:54AM 10.0080 -76.5330 138° Southeast 479 551 35,000  Level FlightAware
12:55AM 9.9390 -76.4680 137° Southeast 477 549 35,000  Level FlightAware
12:55AM 9.8740 -76.4090 138° Southeast 477 549 35,000  Level FlightAware
12:56AM 9.8020 -76.3420 137° Southeast 475 547 35,000  Level FlightAware
12:57AM 9.7550 -76.2980 137° Southeast 475 547 35,000  Level FlightAware
12:58AM 9.6580 -76.2070 137° Southeast 466 536 35,000  Level FlightAware
12:58AM 9.5950 -76.1450 136° Southeast 466 536 35,000  Level FlightAware
12:59AM 9.5470 -76.0980 136° Southeast 466 536 35,000  Level FlightAware
01:00AM 9.4670 -76.0200 136° Southeast 466 536 35,000  Level FlightAware
01:01AM 9.4190 -75.9730 136° Southeast 466 536 35,000  Level FlightAware
01:01AM 9.3560 -75.9110 136° Southeast 466 536 35,000  Level FlightAware
01:02AM 9.3090 -75.8650 136° Southeast 466 536 35,000  Level FlightAware
01:03AM 9.2440 -75.8020 136° Southeast 466 536 35,000  Level FlightAware
01:03AM 9.1970 -75.7550 135° Southeast 466 536 35,000  Level FlightAware
01:04AM 8.9990 -75.6020 143° Southeast 476 548 35,000  Level FlightAware
01:05AM 8.9260 -75.5350 138° Southeast 475 547 35,000  Level FlightAware
01:06AM 8.8510 -75.4660 138° Southeast 474 545 35,000  Level FlightAware
01:07AM 8.7770 -75.3980 138° Southeast 474 545 35,000  Level FlightAware
01:07AM 8.7200 -75.3460 138° Southeast 475 547 35,000  Level FlightAware
01:08AM 8.6450 -75.2780 138° Southeast 475 547 35,000  Level FlightAware
01:09AM 8.5900 -75.2270 137° Southeast 475 547 35,000  Level FlightAware
01:09AM 8.5230 -75.1650 138° Southeast 474 545 35,000  Level FlightAware
01:10AM 8.4530 -75.1020 138° Southeast 474 545 35,000  Level FlightAware
01:11AM 8.3490 -75.0070 138° Southeast 472 543 35,000  Level FlightAware
01:12AM 8.3000 -74.9630 138° Southeast 472 543 35,000  Level FlightAware
01:12AM 8.2340 -74.9020 138° Southeast 472 543 35,000  Level FlightAware
01:13AM 8.1850 -74.8570 138° Southeast 472 543 35,000  Level FlightAware
01:14AM 8.1210 -74.7990 138° Southeast 472 543 35,000  Level FlightAware
01:14AM 8.0670 -74.7510 139° Southeast 472 543 35,000  Level FlightAware
01:15AM 8.0000 -74.6890 137° Southeast 472 543 35,000  Level FlightAware
01:16AM 7.9500 -74.6440 138° Southeast 472 543 35,000  Level FlightAware
01:17AM 7.8840 -74.5840 138° Southeast 472 543 35,000  Level FlightAware
01:17AM 7.8340 -74.5390 138° Southeast 472 543 35,000  Level FlightAware
01:18AM 7.7680 -74.4780 138° Southeast 472 543 35,000  Level FlightAware
01:19AM 7.7170 -74.4320 138° Southeast 472 543 35,000  Level FlightAware
01:19AM 7.6510 -74.3720 138° Southeast 472 543 35,000  Level FlightAware
01:20AM 7.6000 -74.3260 138° Southeast 472 543 35,000 -60 Level FlightAware
01:23AM 7.3600 -74.1094 138° Southeast  Level FlightAware Approximate
01:24AM 7.2621 -74.0210 138° Southeast  Level FlightAware Approximate
01:25AM 7.1641 -73.9327 138° Southeast  Level FlightAware Approximate
01:26AM 7.0661 -73.8445 138° Southeast  Level FlightAware Approximate
01:27AM 6.9593 -73.7688 152° Southeast  Level FlightAware Approximate
01:28AM 6.8436 -73.7059 152° Southeast  Level FlightAware Approximate
01:29AM 6.7283 -73.6432 152° Southeast  Level FlightAware Approximate
01:30AM 6.6131 -73.5806 152° Southeast  Level FlightAware Approximate
01:31AM 6.4978 -73.5181 152° Southeast  Level FlightAware Approximate
01:32AM 6.3825 -73.4555 152° Southeast  Level FlightAware Approximate
01:33AM 6.2672 -73.3930 152° Southeast  Level FlightAware Approximate
01:34AM 6.1519 -73.3305 152° Southeast  Level FlightAware Approximate
01:35AM 6.0366 -73.2680 152° Southeast  Level FlightAware Approximate
01:36AM 5.9212 -73.2056 152° Southeast  Level FlightAware Approximate
01:37AM 5.8059 -73.1432 152° Southeast  Level FlightAware Approximate
01:38AM 5.6906 -73.0808 152° Southeast  Level FlightAware Approximate
01:39AM 5.5752 -73.0184 152° Southeast  Level FlightAware Approximate
01:40AM 5.4599 -72.9560 152° Southeast  Level FlightAware Approximate
01:41AM 5.3445 -72.8937 152° Southeast  Level FlightAware Approximate
01:42AM 5.2292 -72.8314 152° Southeast  Level FlightAware Approximate
01:43AM 5.1138 -72.7692 152° Southeast  Level FlightAware Approximate
01:44AM 4.9984 -72.7069 152° Southeast  Level FlightAware Approximate
01:45AM 4.8830 -72.6447 152° Southeast  Level FlightAware Approximate
01:46AM 4.7677 -72.5825 152° Southeast  Level FlightAware Approximate
01:47AM 4.6523 -72.5203 152° Southeast  Level FlightAware Approximate
01:48AM 4.5369 -72.4581 152° Southeast  Level FlightAware Approximate
01:49AM 4.4215 -72.3960 152° Southeast  Level FlightAware Approximate
01:50AM 4.3061 -72.3338 152° Southeast  Level FlightAware Approximate
01:51AM 4.1906 -72.2717 152° Southeast  Level FlightAware Approximate
01:52AM 4.0752 -72.2096 152° Southeast  Level FlightAware Approximate
01:53AM 3.9598 -72.1476 152° Southeast  Level FlightAware Approximate
01:54AM 3.8508 -72.0751 145° Southeast  Level FlightAware Approximate
01:55AM 3.7441 -71.9998 145° Southeast  Level FlightAware Approximate
01:56AM 3.6374 -71.9245 145° Southeast  Level FlightAware Approximate
01:57AM 3.5306 -71.8492 145° Southeast  Level FlightAware Approximate
01:58AM 3.4239 -71.7740 145° Southeast  Level FlightAware Approximate
01:59AM 3.3171 -71.6987 145° Southeast  Level FlightAware Approximate
02:00AM 3.2104 -71.6235 145° Southeast  Level FlightAware Approximate
02:01AM 3.1036 -71.5483 145° Southeast  Level FlightAware Approximate
02:02AM 2.9968 -71.4731 145° Southeast  Level FlightAware Approximate
02:03AM 2.8901 -71.3979 145° Southeast  Level FlightAware Approximate
02:04AM 2.7833 -71.3228 145° Southeast  Level FlightAware Approximate
02:05AM 2.6765 -71.2476 145° Southeast  Level FlightAware Approximate
02:06AM 2.5697 -71.1725 145° Southeast  Level FlightAware Approximate
02:07AM 2.4629 -71.0974 145° Southeast  Level FlightAware Approximate
02:08AM 2.3561 -71.0223 145° Southeast  Level FlightAware Approximate
02:09AM 2.2493 -70.9472 145° Southeast  Level FlightAware Approximate
02:10AM 2.1425 -70.8721 145° Southeast  Level FlightAware Approximate
02:11AM 2.0357 -70.7970 145° Southeast  Level FlightAware Approximate
02:12AM 1.9289 -70.7219 145° Southeast  Level FlightAware Approximate
02:13AM 1.8221 -70.6469 145° Southeast  Level FlightAware Approximate
02:14AM 1.7153 -70.5718 145° Southeast  Level FlightAware Approximate
02:15AM 1.6085 -70.4968 145° Southeast  Level FlightAware Approximate
02:16AM 1.5016 -70.4218 145° Southeast  Level FlightAware Approximate
02:17AM 1.3948 -70.3467 145° Southeast  Level FlightAware Approximate
02:18AM 1.2880 -70.2717 145° Southeast  Level FlightAware Approximate
02:19AM 1.1858 -70.1910 138° Southeast  Level FlightAware Approximate
02:20AM 1.0883 -70.1041 138° Southeast  Level FlightAware Approximate
02:21AM 0.9908 -70.0173 138° Southeast  Level FlightAware Approximate
02:22AM 0.8933 -69.9306 138° Southeast  Level FlightAware Approximate
02:23AM 0.7958 -69.8438 138° Southeast  Level FlightAware Approximate
02:24AM 0.6983 -69.7570 138° Southeast  Level FlightAware Approximate
02:25AM 0.6008 -69.6702 138° Southeast  Level FlightAware Approximate
02:26AM 0.5033 -69.5834 138° Southeast  Level FlightAware Approximate
02:27AM 0.4058 -69.4966 138° Southeast  Level FlightAware Approximate
02:28AM 0.3083 -69.4099 138° Southeast  Level FlightAware Approximate
02:29AM 0.2108 -69.3231 138° Southeast  Level FlightAware Approximate
02:30AM 0.1133 -69.2363 138° Southeast  Level FlightAware Approximate
02:31AM 0.0158 -69.1496 138° Southeast  Level FlightAware Approximate
02:32AM -0.0817 -69.0628 138° Southeast  Level FlightAware Approximate
02:33AM -0.1792 -68.9760 138° Southeast  Level FlightAware Approximate
02:34AM -0.2767 -68.8893 138° Southeast  Level FlightAware Approximate
02:35AM -0.3742 -68.8025 138° Southeast  Level FlightAware Approximate
02:36AM -0.4717 -68.7157 138° Southeast  Level FlightAware Approximate
02:37AM -0.5692 -68.6289 138° Southeast  Level FlightAware Approximate
02:38AM -0.6667 -68.5421 138° Southeast  Level FlightAware Approximate
02:39AM -0.7642 -68.4554 138° Southeast  Level FlightAware Approximate
02:40AM -0.8617 -68.3686 138° Southeast  Level FlightAware Approximate
02:41AM -0.9592 -68.2818 138° Southeast  Level FlightAware Approximate
02:42AM -1.0567 -68.1950 138° Southeast  Level FlightAware Approximate
02:43AM -1.1542 -68.1082 138° Southeast  Level FlightAware Approximate
02:44AM -1.2517 -68.0214 138° Southeast  Level FlightAware Approximate
02:45AM -1.3492 -67.9345 138° Southeast  Level FlightAware Approximate
02:46AM -1.4467 -67.8477 138° Southeast  Level FlightAware Approximate
02:47AM -1.5441 -67.7609 138° Southeast  Level FlightAware Approximate
02:48AM -1.6416 -67.6741 138° Southeast  Level FlightAware Approximate
02:49AM -1.7391 -67.5872 138° Southeast  Level FlightAware Approximate
02:50AM -1.8365 -67.5004 138° Southeast  Level FlightAware Approximate
02:51AM -1.9340 -67.4135 138° Southeast  Level FlightAware Approximate
02:52AM -2.0315 -67.3266 138° Southeast  Level FlightAware Approximate
02:53AM -2.1289 -67.2397 138° Southeast  Level FlightAware Approximate
02:54AM -2.2264 -67.1528 138° Southeast  Level FlightAware Approximate
02:55AM -2.3238 -67.0659 138° Southeast  Level FlightAware Approximate
02:56AM -2.4212 -66.9790 138° Southeast  Level FlightAware Approximate
02:57AM -2.5187 -66.8921 138° Southeast  Level FlightAware Approximate
02:58AM -2.6161 -66.8051 138° Southeast  Level FlightAware Approximate
02:59AM -2.7135 -66.7182 138° Southeast  Level FlightAware Approximate
03:00AM -2.8109 -66.6312 138° Southeast  Level FlightAware Approximate
03:01AM -2.9083 -66.5442 138° Southeast  Level FlightAware Approximate
03:02AM -3.0057 -66.4572 138° Southeast  Level FlightAware Approximate
03:03AM -3.1031 -66.3702 138° Southeast  Level FlightAware Approximate
03:04AM -3.2005 -66.2831 138° Southeast  Level FlightAware Approximate
03:05AM -3.2979 -66.1961 138° Southeast  Level FlightAware Approximate
03:06AM -3.3953 -66.1090 138° Southeast  Level FlightAware Approximate
03:07AM -3.4926 -66.0219 138° Southeast  Level FlightAware Approximate
03:08AM -3.5900 -65.9348 138° Southeast  Level FlightAware Approximate
03:09AM -3.6873 -65.8477 138° Southeast  Level FlightAware Approximate
03:10AM -3.7847 -65.7606 138° Southeast  Level FlightAware Approximate
03:11AM -3.8820 -65.6734 138° Southeast  Level FlightAware Approximate
03:12AM -3.9793 -65.5862 138° Southeast  Level FlightAware Approximate
03:13AM -4.0766 -65.4990 138° Southeast  Level FlightAware Approximate
03:14AM -4.1739 -65.4118 138° Southeast  Level FlightAware Approximate
03:15AM -4.2712 -65.3246 138° Southeast  Level FlightAware Approximate
03:16AM -4.3685 -65.2373 138° Southeast  Level FlightAware Approximate
03:17AM -4.4658 -65.1500 138° Southeast  Level FlightAware Approximate
03:18AM -4.5630 -65.0627 138° Southeast  Level FlightAware Approximate
03:19AM -4.6603 -64.9754 138° Southeast  Level FlightAware Approximate
03:20AM -4.7575 -64.8880 138° Southeast  Level FlightAware Approximate
03:21AM -4.8548 -64.8006 138° Southeast  Level FlightAware Approximate
03:22AM -4.9520 -64.7132 138° Southeast  Level FlightAware Approximate
03:23AM -5.0492 -64.6258 138° Southeast  Level FlightAware Approximate
03:24AM -5.1464 -64.5383 138° Southeast  Level FlightAware Approximate
03:25AM -5.2436 -64.4508 138° Southeast  Level FlightAware Approximate
03:26AM -5.3408 -64.3633 138° Southeast  Level FlightAware Approximate
03:27AM -5.4379 -64.2758 138° Southeast  Level FlightAware Approximate
03:28AM -5.5351 -64.1882 138° Southeast  Level FlightAware Approximate
03:29AM -5.6322 -64.1006 138° Southeast  Level FlightAware Approximate
03:30AM -5.7293 -64.0130 138° Southeast  Level FlightAware Approximate
03:31AM -5.8264 -63.9253 138° Southeast  Level FlightAware Approximate
03:32AM -5.9235 -63.8376 138° Southeast  Level FlightAware Approximate
03:33AM -6.0206 -63.7499 138° Southeast  Level FlightAware Approximate
03:34AM -6.1177 -63.6622 138° Southeast  Level FlightAware Approximate
03:35AM -6.2147 -63.5744 138° Southeast  Level FlightAware Approximate
03:36AM -6.3118 -63.4865 138° Southeast  Level FlightAware Approximate
03:37AM -6.4088 -63.3987 138° Southeast  Level FlightAware Approximate
03:38AM -6.5058 -63.3108 138° Southeast  Level FlightAware Approximate
03:39AM -6.6028 -63.2229 138° Southeast  Level FlightAware Approximate
03:40AM -6.6998 -63.1349 138° Southeast  Level FlightAware Approximate
03:41AM -6.7967 -63.0470 138° Southeast  Level FlightAware Approximate
03:42AM -6.8937 -62.9589 138° Southeast  Level FlightAware Approximate
03:43AM -6.9906 -62.8709 138° Southeast  Level FlightAware Approximate
03:44AM -7.0874 -62.7829 138° Southeast  Level FlightAware Approximate
03:45AM -7.1841 -62.6950 138° Southeast  Level FlightAware Approximate
03:46AM -7.2808 -62.6069 138° Southeast  Level FlightAware Approximate
03:47AM -7.3775 -62.5189 138° Southeast  Level FlightAware Approximate
03:48AM -7.4742 -62.4308 138° Southeast  Level FlightAware Approximate
03:49AM -7.5708 -62.3427 138° Southeast  Level FlightAware Approximate
03:50AM -7.6675 -62.2545 138° Southeast  Level FlightAware Approximate
03:51AM -7.7641 -62.1663 138° Southeast  Level FlightAware Approximate
03:52AM -7.8607 -62.0780 138° Southeast  Level FlightAware Approximate
03:53AM -7.9573 -61.9898 138° Southeast  Level FlightAware Approximate
03:54AM -8.0539 -61.9014 138° Southeast  Level FlightAware Approximate
03:55AM -8.1504 -61.8131 138° Southeast  Level FlightAware Approximate
03:56AM -8.2470 -61.7246 138° Southeast  Level FlightAware Approximate
03:57AM -8.3435 -61.6362 138° Southeast  Level FlightAware Approximate
03:58AM -8.4401 -61.5475 138° Southeast  Level FlightAware Approximate
03:59AM -8.5368 -61.4588 138° Southeast  Level FlightAware Approximate
04:00AM -8.6334 -61.3701 138° Southeast  Level FlightAware Approximate
04:01AM -8.7300 -61.2813 138° Southeast  Level FlightAware Approximate
04:02AM -8.8266 -61.1924 138° Southeast  Level FlightAware Approximate
04:03AM -8.9231 -61.1035 138° Southeast  Level FlightAware Approximate
04:04AM -9.0197 -61.0146 138° Southeast  Level FlightAware Approximate
04:05AM -9.1162 -60.9256 138° Southeast  Level FlightAware Approximate
04:06AM -9.2127 -60.8366 138° Southeast  Level FlightAware Approximate
04:07AM -9.3091 -60.7475 138° Southeast  Level FlightAware Approximate
04:08AM -9.4056 -60.6584 138° Southeast  Level FlightAware Approximate
04:09AM -9.5020 -60.5692 138° Southeast  Level FlightAware Approximate
04:10AM -9.5984 -60.4800 138° Southeast  Level FlightAware Approximate
04:11AM -9.6948 -60.3907 138° Southeast  Level FlightAware Approximate
04:12AM -9.7912 -60.3014 138° Southeast  Level FlightAware Approximate
04:13AM -9.8875 -60.2120 138° Southeast  Level FlightAware Approximate
04:14AM -9.9838 -60.1226 138° Southeast  Level FlightAware Approximate
04:15AM -10.0801 -60.0331 138° Southeast  Level FlightAware Approximate
04:16AM -10.1764 -59.9435 138° Southeast  Level FlightAware Approximate
04:17AM -10.2726 -59.8540 138° Southeast  Level FlightAware Approximate
04:18AM -10.3688 -59.7643 137° Southeast  Level FlightAware Approximate
04:19AM -10.4650 -59.6746 137° Southeast  Level FlightAware Approximate
04:20AM -10.5612 -59.5848 137° Southeast  Level FlightAware Approximate
04:21AM -10.6573 -59.4950 137° Southeast  Level FlightAware Approximate
04:22AM -10.7535 -59.4052 137° Southeast  Level FlightAware Approximate
04:23AM -10.8496 -59.3152 137° Southeast  Level FlightAware Approximate
04:24AM -10.9456 -59.2252 137° Southeast  Level FlightAware Approximate
04:25AM -11.0416 -59.1352 137° Southeast  Level FlightAware Approximate
04:26AM -11.1377 -59.0451 137° Southeast  Level FlightAware Approximate
04:27AM -11.2336 -58.9549 137° Southeast  Level FlightAware Approximate
04:28AM -11.3296 -58.8647 137° Southeast  Level FlightAware Approximate
04:29AM -11.4257 -58.7743 137° Southeast  Level FlightAware Approximate
04:30AM -11.5218 -58.6838 137° Southeast  Level FlightAware Approximate
04:31AM -11.6178 -58.5932 137° Southeast  Level FlightAware Approximate
04:32AM -11.7138 -58.5026 137° Southeast  Level FlightAware Approximate
04:33AM -11.8098 -58.4119 137° Southeast  Level FlightAware Approximate
04:34AM -11.9058 -58.3211 137° Southeast  Level FlightAware Approximate
04:35AM -12.0017 -58.2303 137° Southeast  Level FlightAware Approximate
04:36AM -12.0976 -58.1394 137° Southeast  Level FlightAware Approximate
04:37AM -12.1935 -58.0485 137° Southeast  Level FlightAware Approximate
04:38AM -12.2893 -57.9575 137° Southeast  Level FlightAware Approximate
04:39AM -12.3851 -57.8664 137° Southeast  Level FlightAware Approximate
04:40AM -12.4809 -57.7752 137° Southeast  Level FlightAware Approximate
04:41AM -12.5766 -57.6840 137° Southeast  Level FlightAware Approximate
04:42AM -12.6724 -57.5927 137° Southeast  Level FlightAware Approximate
04:43AM -12.7680 -57.5014 137° Southeast  Level FlightAware Approximate
04:44AM -12.8637 -57.4100 137° Southeast  Level FlightAware Approximate
04:45AM -12.9593 -57.3185 137° Southeast  Level FlightAware Approximate
04:46AM -13.0549 -57.2269 137° Southeast  Level FlightAware Approximate
04:47AM -13.1505 -57.1353 137° Southeast  Level FlightAware Approximate
04:48AM -13.2460 -57.0436 137° Southeast  Level FlightAware Approximate
04:49AM -13.3415 -56.9518 137° Southeast  Level FlightAware Approximate
04:50AM -13.4369 -56.8600 137° Southeast  Level FlightAware Approximate
04:51AM -13.5324 -56.7680 137° Southeast  Level FlightAware Approximate
04:52AM -13.6278 -56.6760 137° Southeast  Level FlightAware Approximate
04:53AM -13.7231 -56.5840 137° Southeast  Level FlightAware Approximate
04:54AM -13.8184 -56.4918 137° Southeast  Level FlightAware Approximate
04:55AM -13.9137 -56.3996 137° Southeast  Level FlightAware Approximate
04:56AM -14.0090 -56.3073 137° Southeast  Level FlightAware Approximate
04:57AM -14.1042 -56.2149 137° Southeast  Level FlightAware Approximate
04:58AM -14.1994 -56.1225 137° Southeast  Level FlightAware Approximate
04:59AM -14.2945 -56.0300 137° Southeast  Level FlightAware Approximate
05:00AM -14.3896 -55.9374 137° Southeast  Level FlightAware Approximate
05:01AM -14.4847 -55.8447 137° Southeast  Level FlightAware Approximate
05:02AM -14.5798 -55.7519 137° Southeast  Level FlightAware Approximate
05:03AM -14.6748 -55.6591 137° Southeast  Level FlightAware Approximate
05:04AM -14.7697 -55.5662 137° Southeast  Level FlightAware Approximate
05:05AM -14.8647 -55.4731 137° Southeast  Level FlightAware Approximate
05:06AM -14.9595 -55.3801 137° Southeast  Level FlightAware Approximate
05:07AM -15.0544 -55.2869 137° Southeast  Level FlightAware Approximate
05:08AM -15.1492 -55.1936 136° Southeast  Level FlightAware Approximate
05:09AM -15.2440 -55.1003 136° Southeast  Level FlightAware Approximate
05:10AM -15.3387 -55.0069 136° Southeast  Level FlightAware Approximate
05:11AM -15.4334 -54.9134 136° Southeast  Level FlightAware Approximate
05:12AM -15.5280 -54.8199 136° Southeast  Level FlightAware Approximate
05:13AM -15.6224 -54.7264 136° Southeast  Level FlightAware Approximate
05:14AM -15.7168 -54.6328 136° Southeast  Level FlightAware Approximate
05:15AM -15.8112 -54.5391 136° Southeast  Level FlightAware Approximate
05:16AM -15.9056 -54.4454 136° Southeast  Level FlightAware Approximate
05:17AM -15.9999 -54.3515 136° Southeast  Level FlightAware Approximate
05:18AM -16.0941 -54.2575 136° Southeast  Level FlightAware Approximate
05:19AM -16.1883 -54.1635 136° Southeast  Level FlightAware Approximate
05:20AM -16.2825 -54.0694 136° Southeast  Level FlightAware Approximate
05:21AM -16.3766 -53.9752 136° Southeast  Level FlightAware Approximate
05:22AM -16.4707 -53.8809 136° Southeast  Level FlightAware Approximate
05:23AM -16.5648 -53.7864 136° Southeast  Level FlightAware Approximate
05:24AM -16.6588 -53.6920 136° Southeast  Level FlightAware Approximate
05:25AM -16.7527 -53.5974 136° Southeast  Level FlightAware Approximate
05:26AM -16.8467 -53.5027 136° Southeast  Level FlightAware Approximate
05:27AM -16.9405 -53.4079 136° Southeast  Level FlightAware Approximate
05:28AM -17.0344 -53.3130 136° Southeast  Level FlightAware Approximate
05:29AM -17.1282 -53.2181 136° Southeast  Level FlightAware Approximate
05:30AM -17.2219 -53.1230 136° Southeast  Level FlightAware Approximate
05:31AM -17.3156 -53.0279 136° Southeast  Level FlightAware Approximate
05:32AM -17.4093 -52.9326 136° Southeast  Level FlightAware Approximate
05:33AM -17.5029 -52.8373 136° Southeast  Level FlightAware Approximate
05:34AM -17.5964 -52.7418 136° Southeast  Level FlightAware Approximate
05:35AM -17.6899 -52.6463 136° Southeast  Level FlightAware Approximate
05:36AM -17.7834 -52.5506 136° Southeast  Level FlightAware Approximate
05:37AM -17.8768 -52.4549 136° Southeast  Level FlightAware Approximate
05:38AM -17.9702 -52.3590 136° Southeast  Level FlightAware Approximate
05:39AM -18.0635 -52.2631 136° Southeast  Level FlightAware Approximate
05:40AM -18.1568 -52.1670 136° Southeast  Level FlightAware Approximate
05:41AM -18.2501 -52.0709 136° Southeast  Level FlightAware Approximate
05:42AM -18.3433 -51.9746 136° Southeast  Level FlightAware Approximate
05:43AM -18.4364 -51.8783 136° Southeast  Level FlightAware Approximate
05:44AM -18.5295 -51.7818 136° Southeast  Level FlightAware Approximate
05:44AM -19.1490 -50.5080 135° Southeast 500 575 33,000  Level FlightAware
05:45AM -18.6225 -51.6852 135° Southeast  Level FlightAware Approximate
05:45AM -19.2230 -50.4270 134° Southeast 500 575 33,000  Level FlightAware
05:45AM -19.2880 -50.3560 134° Southeast 502 578 33,000  Level FlightAware
05:46AM -19.3580 -50.2780 134° Southeast 502 578 33,000  Level FlightAware
05:47AM -19.4240 -50.2060 134° Southeast 502 578 33,000  Level FlightAware
05:47AM -19.4910 -50.1330 134° Southeast 504 580 33,000  Level FlightAware
05:48AM -19.5620 -50.0540 134° Southeast 503 579 33,000  Level FlightAware
05:49AM -19.6280 -49.9820 134° Southeast 503 579 33,000  Level FlightAware
05:49AM -19.6960 -49.9080 134° Southeast 503 579 33,000  Level FlightAware
05:50AM -19.7630 -49.8340 134° Southeast 502 578 33,000  Level FlightAware
05:51AM -19.8320 -49.7600 135° Southeast 502 578 33,000  Level FlightAware
05:52AM -19.9000 -49.6850 134° Southeast 501 577 33,000  Level FlightAware
05:52AM -19.9700 -49.6080 134° Southeast 501 577 33,000  Level FlightAware
05:53AM -20.0350 -49.5360 134° Southeast 502 578 33,000  Level FlightAware
05:54AM -20.1030 -49.4610 134° Southeast 502 578 33,000  Level FlightAware
05:54AM -20.1710 -49.3870 134° Southeast 502 578 33,000  Level FlightAware
05:55AM -20.2390 -49.3120 134° Southeast 502 578 33,000  Level FlightAware
05:56AM -20.3070 -49.2370 134° Southeast 503 579 33,000  Level FlightAware
05:56AM -20.3740 -49.1620 134° Southeast 504 580 33,000  Level FlightAware
05:57AM -20.4420 -49.0870 134° Southeast 504 580 33,000  Level FlightAware
05:58AM -20.5100 -49.0120 134° Southeast 505 581 33,000  Level FlightAware
05:59AM -20.5810 -48.9340 134° Southeast 504 580 33,000  Level FlightAware
05:59AM -20.6460 -48.8610 134° Southeast 505 581 33,000  Level FlightAware
06:00AM -20.7100 -48.7900 134° Southeast 505 581 33,000  Level FlightAware
06:01AM -20.7850 -48.7060 134° Southeast 505 581 33,000  Level FlightAware
06:01AM -20.8400 -48.6440 134° Southeast 505 581 33,000  Level FlightAware
06:02AM -20.9180 -48.5570 134° Southeast 507 583 33,000  Level FlightAware
06:03AM -20.9850 -48.4810 133° Southeast 507 583 33,000  Level FlightAware
06:03AM -21.0560 -48.4010 134° Southeast 508 585 33,000  Level FlightAware
06:04AM -21.1180 -48.3310 134° Southeast 509 586 33,000  Level FlightAware
06:05AM -21.1900 -48.2500 134° Southeast 510 587 33,000  Level FlightAware
06:06AM -21.2560 -48.1750 133° Southeast 509 586 33,000  Level FlightAware
06:06AM -21.3240 -48.0980 133° Southeast 509 586 33,000  Level FlightAware
06:07AM -21.3960 -48.0170 134° Southeast 509 586 33,000  Level FlightAware
06:08AM -21.4600 -47.9440 133° Southeast 509 586 33,000  Level FlightAware
06:08AM -21.5340 -47.8600 133° Southeast 508 585 33,000  Level FlightAware
06:09AM -21.5960 -47.7900 134° Southeast 508 585 33,000  Level FlightAware
06:10AM -21.6670 -47.7090 133° Southeast 509 586 33,000  Level FlightAware
06:10AM -21.7390 -47.6270 133° Southeast 508 585 33,000  Level FlightAware
06:11AM -21.7950 -47.5630 133° Southeast 508 585 33,000  Level FlightAware
06:12AM -21.8700 -47.4760 133° Southeast 507 583 33,000 -120 Level FlightAware
06:13AM -21.9400 -47.4100 139° Southeast 500 575 32,900 -1,560 Descending FlightAware
06:13AM -22.0350 -47.3590 154° Southeast 500 575 30,800 -2,640 Descending FlightAware
06:14AM -22.1190 -47.3200 157° South 489 563 29,200 -2,280 Descending FlightAware
06:15AM -22.2020 -47.2810 156° South 476 548 27,800 -2,040 Descending FlightAware
06:15AM -22.2850 -47.2410 156° South 464 534 26,400 -2,160 Descending FlightAware
06:16AM -22.3700 -47.1990 155° Southeast 456 525 24,700 -2,280 Descending FlightAware
06:17AM -22.4460 -47.1620 156° South 449 517 23,300 -2,220 Descending FlightAware
06:17AM -22.5280 -47.1210 155° Southeast 440 506 21,700 -2,100 Descending FlightAware
06:18AM -22.6060 -47.0860 157° South 428 493 20,300 -2,160 Descending FlightAware
06:19AM -22.6840 -47.0530 159° South 423 487 18,700 -2,100 Descending FlightAware
06:19AM -22.7490 -47.0260 159° South 418 481 17,500 -2,340 Descending FlightAware
06:20AM -22.8390 -46.9880 159° South 398 458 15,400 -2,160 Descending FlightAware
06:21AM -22.9030 -46.9610 159° South 371 427 14,400 -1,740 Descending FlightAware
06:22AM -22.9640 -46.9350 159° South 326 375 13,100 -1,800 Descending FlightAware
06:22AM -23.0250 -46.9090 159° South 283 326 11,900 -1,620 Descending FlightAware
06:23AM -23.0740 -46.8890 159° South 286 329 10,800 -1,440 Descending FlightAware
06:24AM -23.1230 -46.8680 158° South 276 318 10,000 -1,200 Descending FlightAware
06:24AM -23.1570 -46.8540 159° South 270 311 9,500 -1,200 Descending FlightAware
06:25AM -23.1890 -46.8400 158° South 268 308 8,900 -1,200 Descending FlightAware
06:25AM -23.2090 -46.8320 160° South 266 306 8,600 -1,080 Descending FlightAware
06:25AM -23.2420 -46.8180 159° South 267 307 8,100 -1,080 Descending FlightAware
06:26AM -23.2670 -46.8070 158° South 264 304 7,700 -780 Descending FlightAware
06:26AM -23.2860 -46.8000 161° South 254 292 7,600 -420 Descending FlightAware
06:27AM -23.3160 -46.7870 158° South 233 268 7,400 -480 Descending FlightAware
06:27AM -23.3430 -46.7750 158° South 216 249 7,200 -360 Descending FlightAware
06:27AM -23.3700 -46.7630 158° South 214 246 7,100 -540 Descending FlightAware
06:28AM -23.3920 -46.7450 143° Southeast 219 252 6,700 -1,020 Descending FlightAware
06:28AM -23.4130 -46.7250 139° Southeast 214 246 6,200 -1,200 Descending FlightAware
06:29AM -23.4340 -46.7050 139° Southeast 216 249 5,600 -1,320 Descending FlightAware
06:29AM -23.4520 -46.6820 130° Southeast 209 241 5,000 -960 Descending FlightAware
06:30AM -23.4620 -46.6600 116° Southeast 194 223 4,800 -600 Descending FlightAware
06:30AM -23.4680 -46.6450 114° Southeast 183 211 4,600 -600 Descending FlightAware
06:30AM -23.4750 -46.6240 110° East 172 198 4,400 -480 Descending FlightAware
06:31AM -23.4690 -46.6000 75° East 170 196 4,200 -660 Descending FlightAware
06:31AM -23.4640 -46.5810 74° East 164 189 3,800 -960 Descending FlightAware
06:32AM -23.4580 -46.5580 74° East 138 159 3,400 -780 Descending FlightAware
06:32AM -23.4530 -46.5390 74° East 138 159 3,100 -720 Descending FlightAware
06:33AM -23.4500 -46.5280 73° East 138 159 2,900 -840 Descending FlightAware
06:33AM -23.4440 -46.5070 73° East 141 162 2,500 -780 Descending FlightAware
06:34AM -23.4400 -46.4910 75° East 141 162 2,200 -720 Descending FlightAware
06:34AM -23.4350 -46.4720 74° East 74 85 -4,440 Descending FlightAware
06:34AM -23.4340 -46.4690 70° East 29 33  Level FlightAware
06:35AM -23.4310 -46.4670 31° Northeast 13 15  Level FlightAware